createdAt,value
2019-06-27T00:00:52.492Z,21.04
2019-06-27T00:03:20.897Z,20.97
2019-06-27T00:05:49.333Z,20.94
2019-06-27T00:08:17.693Z,20.99
2019-06-27T00:10:46.041Z,20.98
2019-06-27T00:13:14.447Z,20.85
2019-06-27T00:15:42.800Z,20.80
2019-06-27T00:18:11.203Z,20.81
2019-06-27T00:20:39.557Z,20.68
2019-06-27T00:23:07.932Z,20.71
2019-06-27T00:25:36.307Z,20.71
2019-06-27T00:28:04.688Z,20.73
2019-06-27T00:30:33.030Z,20.82
2019-06-27T00:33:01.409Z,20.86
2019-06-27T00:35:29.782Z,20.89
2019-06-27T00:37:59.091Z,20.94
2019-06-27T00:40:27.418Z,21.11
2019-06-27T00:42:55.805Z,21.33
2019-06-27T00:45:24.155Z,21.43
2019-06-27T00:47:52.519Z,21.45
2019-06-27T00:50:20.886Z,21.53
2019-06-27T00:52:49.256Z,21.42
2019-06-27T00:57:58.705Z,21.58
2019-06-27T01:00:27.078Z,21.55
2019-06-27T01:05:29.752Z,21.52
2019-06-27T01:07:58.162Z,21.46
2019-06-27T01:10:27.410Z,21.34
2019-06-27T01:12:55.783Z,21.29
2019-06-27T01:15:24.205Z,21.31
2019-06-27T01:17:52.497Z,21.42
2019-06-27T01:22:57.167Z,21.18
2019-06-27T01:25:25.554Z,21.11
2019-06-27T01:27:53.898Z,21.12
2019-06-27T01:30:22.246Z,20.99
2019-06-27T01:35:25.735Z,21.12
2019-06-27T01:37:54.097Z,21.27
2019-06-27T01:40:22.480Z,21.28
2019-06-27T01:42:50.845Z,21.07
2019-06-27T01:45:22.665Z,21.07
2019-06-27T01:47:51.029Z,20.95
2019-06-27T01:50:20.389Z,20.83
2019-06-27T01:52:48.776Z,20.77
2019-06-27T01:55:17.123Z,20.72
2019-06-27T01:57:47.076Z,20.71
2019-06-27T02:00:13.893Z,20.81
2019-06-27T02:02:42.268Z,20.83
2019-06-27T02:05:10.636Z,20.92
2019-06-27T02:07:38.995Z,21.05
2019-06-27T02:10:07.397Z,21.11
2019-06-27T02:12:35.747Z,21.28
2019-06-27T02:15:04.831Z,21.36
2019-06-27T02:17:33.188Z,21.40
2019-06-27T02:22:35.880Z,21.30
2019-06-27T02:25:04.250Z,21.40
2019-06-27T02:27:32.585Z,21.42
2019-06-27T02:30:01.045Z,21.36
2019-06-27T02:32:29.423Z,21.28
2019-06-27T02:34:57.764Z,21.15
2019-06-27T02:37:26.149Z,21.17
2019-06-27T02:39:54.519Z,21.12
2019-06-27T02:42:23.053Z,20.91
2019-06-27T02:44:51.428Z,20.60
2019-06-27T02:47:19.798Z,20.44
2019-06-27T02:52:22.451Z,19.99
2019-06-27T02:54:58.926Z,20.02
2019-06-27T02:57:27.316Z,19.93
2019-06-27T03:02:30.026Z,20.03
2019-06-27T03:04:58.423Z,20.13
2019-06-27T03:07:26.795Z,20.16
2019-06-27T03:09:55.190Z,20.14
2019-06-27T03:12:23.611Z,20.15
2019-06-27T03:14:51.982Z,20.08
2019-06-27T03:17:20.441Z,20.07
2019-06-27T03:19:48.787Z,20.08
2019-06-27T03:22:17.171Z,20.11
2019-06-27T03:24:45.550Z,20.02
2019-06-27T03:27:13.938Z,20.08
2019-06-27T03:32:16.660Z,20.17
2019-06-27T03:34:45.033Z,20.17
2019-06-27T03:37:13.449Z,20.18
2019-06-27T03:39:41.834Z,20.26
2019-06-27T03:42:10.216Z,20.34
2019-06-27T03:44:38.618Z,20.32
2019-06-27T03:47:07.017Z,20.28
2019-06-27T03:49:35.377Z,20.21
2019-06-27T03:52:03.789Z,20.13
2019-06-27T03:57:06.443Z,20.23
2019-06-27T03:59:34.823Z,20.36
2019-06-27T04:02:03.217Z,20.52
2019-06-27T04:04:31.571Z,20.47
2019-06-27T04:06:59.926Z,20.56
2019-06-27T04:09:28.310Z,20.67
2019-06-27T04:11:56.726Z,20.71
2019-06-27T04:14:25.083Z,20.81
2019-06-27T04:16:53.439Z,20.87
2019-06-27T04:19:21.872Z,20.94
2019-06-27T04:21:50.234Z,21.05
2019-06-27T04:26:52.923Z,21.15
2019-06-27T04:29:33.561Z,21.24
2019-06-27T04:31:49.749Z,21.26
2019-06-27T04:34:19.893Z,21.31
2019-06-27T04:36:46.417Z,21.39
2019-06-27T04:39:14.818Z,21.51
2019-06-27T04:41:43.177Z,21.54
2019-06-27T04:44:11.564Z,21.55
2019-06-27T04:46:39.927Z,21.59
2019-06-27T04:49:13.014Z,21.65
2019-06-27T04:51:36.661Z,21.82
2019-06-27T04:54:05.039Z,21.98
2019-06-27T04:56:33.411Z,22.15
2019-06-27T04:59:01.778Z,22.29
2019-06-27T05:04:04.457Z,22.53
2019-06-27T05:06:33.778Z,22.66
2019-06-27T05:09:02.133Z,22.79
2019-06-27T05:11:49.736Z,22.93
2019-06-27T05:14:23.493Z,23.00
2019-06-27T05:16:52.775Z,23.09
2019-06-27T05:21:55.512Z,23.23
2019-06-27T05:24:23.905Z,23.28
2019-06-27T05:26:52.245Z,23.38
2019-06-27T05:29:20.609Z,23.45
2019-06-27T05:31:48.982Z,23.54
2019-06-27T05:34:17.337Z,23.67
2019-06-27T05:36:45.695Z,23.81
2019-06-27T05:41:52.268Z,24.04
2019-06-27T05:44:22.715Z,24.16
2019-06-27T05:46:51.065Z,24.22
2019-06-27T05:49:40.817Z,24.39
2019-06-27T05:52:09.167Z,24.52
2019-06-27T05:54:37.528Z,24.56
2019-06-27T05:57:05.881Z,24.74
2019-06-27T05:59:51.290Z,24.83
2019-06-27T06:02:19.658Z,24.89
2019-06-27T06:04:54.184Z,25.01
2019-06-27T06:07:22.529Z,25.13
2019-06-27T06:12:30.194Z,25.33
2019-06-27T06:14:58.561Z,25.46
2019-06-27T06:17:26.955Z,25.54
2019-06-27T06:22:29.565Z,25.68
2019-06-27T06:24:58.382Z,25.74
2019-06-27T06:27:26.307Z,25.83
2019-06-27T06:29:54.665Z,25.89
2019-06-27T06:32:23.038Z,26.04
2019-06-27T06:34:51.422Z,26.23
2019-06-27T06:37:19.764Z,26.33
2019-06-27T06:39:48.185Z,26.42
2019-06-27T06:42:16.561Z,26.43
2019-06-27T06:44:48.757Z,26.49
2019-06-27T06:47:17.136Z,26.53
2019-06-27T06:49:47.505Z,26.67
2019-06-27T06:52:15.883Z,26.73
2019-06-27T06:54:50.194Z,26.75
2019-06-27T06:57:18.564Z,26.91
2019-06-27T07:00:03.540Z,26.90
2019-06-27T07:02:35.888Z,26.94
2019-06-27T07:05:07.864Z,26.88
2019-06-27T07:07:53.006Z,27.05
2019-06-27T07:10:21.381Z,27.17
2019-06-27T07:13:09.277Z,27.23
2019-06-27T07:15:38.792Z,27.28
2019-06-27T07:18:10.518Z,27.38
2019-06-27T07:20:42.394Z,27.46
2019-06-27T07:23:11.756Z,27.37
2019-06-27T07:25:40.146Z,27.43
2019-06-27T07:28:08.624Z,27.40
2019-06-27T07:30:56.313Z,27.45
2019-06-27T07:33:24.682Z,27.52
2019-06-27T07:38:27.462Z,27.60
2019-06-27T07:40:59.174Z,27.76
2019-06-27T07:43:27.533Z,28.09
2019-06-27T07:45:59.529Z,28.08
2019-06-27T07:48:27.889Z,28.25
2019-06-27T07:51:06.953Z,28.42
2019-06-27T07:53:35.311Z,28.55
2019-06-27T07:56:09.572Z,28.51
2019-06-27T08:01:12.236Z,28.70
2019-06-27T08:03:40.600Z,29.08
2019-06-27T08:06:09.891Z,29.38
2019-06-27T08:11:12.636Z,29.73
2019-06-27T08:13:41.864Z,29.79
2019-06-27T08:16:10.227Z,30.16
2019-06-27T08:18:38.579Z,30.52
2019-06-27T08:21:20.514Z,30.41
2019-06-27T08:23:48.860Z,30.70
2019-06-27T08:26:20.642Z,30.82
2019-06-27T08:28:50.894Z,30.97
2019-06-27T08:31:19.318Z,30.80
2019-06-27T08:33:50.900Z,30.84
2019-06-27T08:36:19.265Z,30.89
2019-06-27T08:39:04.788Z,30.96
2019-06-27T08:44:07.508Z,31.26
2019-06-27T08:46:39.344Z,31.34
2019-06-27T08:49:07.690Z,31.45
2019-06-27T08:51:42.381Z,31.62
2019-06-27T08:54:10.739Z,31.56
2019-06-27T08:56:41.069Z,31.56
2019-06-27T09:02:09.032Z,31.73
2019-06-27T09:04:33.322Z,32.08
2019-06-27T09:07:05.893Z,32.12
2019-06-27T09:09:42.470Z,32.31
2019-06-27T09:12:10.825Z,32.27
2019-06-27T09:14:45.090Z,32.27
2019-06-27T09:17:13.480Z,32.54
2019-06-27T09:19:54.526Z,32.52
2019-06-27T09:22:22.916Z,32.93
2019-06-27T09:24:59.386Z,33.12
2019-06-27T09:27:34.365Z,33.57
2019-06-27T09:30:02.829Z,33.72
2019-06-27T09:32:32.264Z,34.16
2019-06-27T09:35:06.268Z,34.47
2019-06-27T09:37:34.614Z,35.26
2019-06-27T09:40:13.063Z,35.53
2019-06-27T09:42:41.420Z,37.70
2019-06-27T09:45:13.499Z,38.07
2019-06-27T09:47:41.849Z,38.72
2019-06-27T09:50:25.011Z,38.26
2019-06-27T09:52:53.357Z,38.36
2019-06-27T09:55:26.112Z,37.35
2019-06-27T09:57:54.480Z,36.94
2019-06-27T10:00:33.683Z,36.39
2019-06-27T10:03:02.155Z,35.82
2019-06-27T10:05:40.331Z,35.16
2019-06-27T10:08:17.175Z,34.16
2019-06-27T10:10:45.539Z,33.51
2019-06-27T10:13:15.792Z,34.77
2019-06-27T10:15:44.147Z,35.24
2019-06-27T10:18:24.915Z,33.80
2019-06-27T10:20:53.271Z,34.00
2019-06-27T10:23:21.638Z,34.63
2019-06-27T10:25:49.987Z,33.79
2019-06-27T10:28:18.383Z,34.85
2019-06-27T10:30:49.128Z,36.13
2019-06-27T10:33:15.375Z,36.25
2019-06-27T10:35:43.722Z,35.21
2019-06-27T10:38:15.626Z,35.35
2019-06-27T10:40:43.982Z,35.29
2019-06-27T10:43:15.356Z,35.65
2019-06-27T10:45:43.780Z,36.28
2019-06-27T10:48:23.944Z,35.63
2019-06-27T10:50:54.613Z,35.92
2019-06-27T10:55:55.094Z,35.26
2019-06-27T10:58:24.352Z,36.14
2019-06-27T11:00:52.707Z,35.66
2019-06-27T11:03:38.418Z,36.25
2019-06-27T11:08:38.094Z,36.26
2019-06-27T11:11:06.475Z,36.21
2019-06-27T11:13:35.878Z,37.96
2019-06-27T11:18:38.593Z,39.66
2019-06-27T11:21:06.961Z,38.93
2019-06-27T11:23:35.314Z,41.15
2019-06-27T11:26:04.736Z,41.06
2019-06-27T11:28:37.536Z,42.31
2019-06-27T11:31:06.681Z,43.86
2019-06-27T11:33:46.857Z,42.52
2019-06-27T11:36:15.237Z,42.33
2019-06-27T11:38:43.891Z,41.85
2019-06-27T11:41:12.840Z,42.95
2019-06-27T11:43:43.225Z,43.94
2019-06-27T11:46:12.214Z,43.85
2019-06-27T11:48:42.551Z,43.64
2019-06-27T11:51:10.901Z,44.45
2019-06-27T11:53:39.263Z,43.01
2019-06-27T11:56:07.613Z,42.91
2019-06-27T11:58:35.967Z,42.06
2019-06-27T12:01:05.238Z,41.12
2019-06-27T12:03:49.443Z,40.58
2019-06-27T12:06:07.907Z,40.45
2019-06-27T12:08:36.362Z,42.27
2019-06-27T12:11:05.529Z,43.04
2019-06-27T12:13:39.627Z,43.15
2019-06-27T12:16:07.962Z,42.40
2019-06-27T12:18:39.740Z,44.24
2019-06-27T12:21:10.007Z,44.95
2019-06-27T12:23:38.359Z,43.94
2019-06-27T12:26:06.703Z,43.87
2019-06-27T12:31:20.130Z,42.74
2019-06-27T12:34:07.227Z,44.38
2019-06-27T12:36:37.838Z,43.36
2019-06-27T12:39:06.190Z,44.79
2019-06-27T12:41:36.490Z,46.44
2019-06-27T12:44:04.881Z,44.13
2019-06-27T12:46:50.919Z,43.70
2019-06-27T12:49:19.285Z,44.89
2019-06-27T12:51:49.566Z,43.16
2019-06-27T12:54:17.914Z,44.85
2019-06-27T12:56:46.248Z,46.52
2019-06-27T12:59:14.616Z,46.06
2019-06-27T13:01:53.983Z,44.79
2019-06-27T13:04:24.130Z,41.09
2019-06-27T13:09:25.015Z,43.04
2019-06-27T13:11:53.293Z,42.69
2019-06-27T13:14:21.645Z,41.77
2019-06-27T13:16:53.703Z,40.47
2019-06-27T13:19:22.046Z,41.05
2019-06-27T13:21:51.311Z,42.44
2019-06-27T13:24:19.694Z,43.48
2019-06-27T13:26:54.755Z,42.31
2019-06-27T13:29:27.770Z,42.72
2019-06-27T13:32:02.390Z,44.58
2019-06-27T13:34:40.495Z,44.42
2019-06-27T13:37:03.670Z,40.89
2019-06-27T13:42:10.337Z,42.66
2019-06-27T13:44:51.346Z,45.13
2019-06-27T13:47:20.371Z,44.31
2019-06-27T13:49:51.598Z,42.86
2019-06-27T13:52:19.947Z,42.46
2019-06-27T13:54:48.316Z,40.53
2019-06-27T13:57:16.720Z,40.90
2019-06-27T13:59:46.071Z,42.67
2019-06-27T14:02:14.452Z,41.66
2019-06-27T14:04:56.141Z,42.91
2019-06-27T14:07:30.013Z,44.63
2019-06-27T14:09:58.374Z,41.48
2019-06-27T14:12:26.736Z,41.06
2019-06-27T14:14:59.663Z,40.87
2019-06-27T14:17:24.516Z,42.61
2019-06-27T14:19:52.950Z,40.75
2019-06-27T14:22:33.439Z,39.69
2019-06-27T14:24:53.818Z,38.68
2019-06-27T14:27:23.134Z,39.93
2019-06-27T14:29:51.520Z,41.16
2019-06-27T14:32:19.901Z,41.62
2019-06-27T14:34:48.267Z,43.26
2019-06-27T14:37:22.058Z,42.17
2019-06-27T14:39:50.451Z,42.52
2019-06-27T14:42:18.802Z,40.30
2019-06-27T14:44:47.154Z,38.19
2019-06-27T14:47:26.134Z,38.19
2019-06-27T14:49:54.498Z,37.62
2019-06-27T14:52:22.852Z,39.47
2019-06-27T14:54:51.204Z,39.53
2019-06-27T14:57:19.564Z,39.84
2019-06-27T14:59:47.920Z,38.99
2019-06-27T15:04:52.821Z,39.81
2019-06-27T15:07:21.080Z,39.04
2019-06-27T15:09:49.428Z,38.43
2019-06-27T15:12:17.783Z,39.84
2019-06-27T15:14:46.128Z,40.85
2019-06-27T15:17:18.346Z,41.09
2019-06-27T15:19:47.590Z,42.00
2019-06-27T15:22:15.961Z,39.95
2019-06-27T15:24:44.322Z,41.55
2019-06-27T15:27:16.289Z,42.30
2019-06-27T15:29:44.652Z,40.41
2019-06-27T15:32:13.001Z,39.68
2019-06-27T15:34:41.378Z,41.60
2019-06-27T15:37:09.751Z,41.15
2019-06-27T15:39:38.108Z,41.61
2019-06-27T15:42:08.454Z,41.86
2019-06-27T15:44:36.826Z,40.28
2019-06-27T15:47:05.227Z,41.54
2019-06-27T15:49:33.731Z,42.55
2019-06-27T15:52:06.221Z,41.31
2019-06-27T15:54:36.652Z,39.90
2019-06-27T15:57:05.035Z,40.74
2019-06-27T15:59:33.377Z,39.71
2019-06-27T16:04:37.336Z,39.11
2019-06-27T16:09:52.022Z,39.13
2019-06-27T16:12:20.405Z,38.12
2019-06-27T16:14:48.775Z,38.12
2019-06-27T16:17:17.156Z,39.90
2019-06-27T16:19:45.491Z,40.78
2019-06-27T16:22:19.520Z,40.37
2019-06-27T16:24:48.073Z,40.05
2019-06-27T16:27:21.184Z,38.62
2019-06-27T16:29:49.597Z,39.49
2019-06-27T16:32:18.317Z,38.27
2019-06-27T16:34:46.657Z,36.62
2019-06-27T16:39:49.196Z,34.77
2019-06-27T16:42:21.434Z,34.04
2019-06-27T16:44:49.780Z,33.72
2019-06-27T16:47:20.158Z,33.85
2019-06-27T16:49:49.229Z,33.24
2019-06-27T16:52:21.951Z,33.57
2019-06-27T16:54:50.301Z,33.15
2019-06-27T16:59:53.011Z,33.48
2019-06-27T17:02:21.370Z,33.01
2019-06-27T17:04:49.738Z,32.74
2019-06-27T17:07:22.513Z,32.44
2019-06-27T17:09:50.873Z,32.25
2019-06-27T17:12:24.314Z,32.91
2019-06-27T17:14:52.673Z,32.68
2019-06-27T17:20:02.441Z,32.00
2019-06-27T17:22:30.793Z,31.90
2019-06-27T17:25:01.102Z,31.45
2019-06-27T17:27:36.697Z,31.55
2019-06-27T17:30:12.552Z,31.00
2019-06-27T17:32:42.912Z,31.35
2019-06-27T17:35:11.264Z,31.49
2019-06-27T17:37:39.675Z,31.22
2019-06-27T17:40:10.110Z,31.27
2019-06-27T17:42:47.469Z,31.21
2019-06-27T17:45:15.822Z,30.71
2019-06-27T17:47:44.185Z,30.82
2019-06-27T17:50:12.542Z,30.12
2019-06-27T17:52:52.077Z,30.48
2019-06-27T17:55:20.439Z,30.59
2019-06-27T17:57:48.842Z,30.61
2019-06-27T18:00:17.662Z,30.42
2019-06-27T18:02:46.960Z,30.34
2019-06-27T18:05:18.307Z,30.12
2019-06-27T18:07:44.745Z,30.05
2019-06-27T18:10:13.118Z,29.83
2019-06-27T18:12:43.381Z,29.73
2019-06-27T18:15:11.760Z,29.68
2019-06-27T18:17:47.344Z,29.48
2019-06-27T18:20:16.515Z,29.17
2019-06-27T18:22:51.509Z,29.14
2019-06-27T18:25:21.583Z,29.11
2019-06-27T18:27:49.910Z,28.82
2019-06-27T18:30:19.283Z,28.68
2019-06-27T18:32:53.820Z,28.72
2019-06-27T18:35:39.287Z,28.69
2019-06-27T18:38:07.621Z,28.52
2019-06-27T18:40:38.745Z,28.48
2019-06-27T18:43:07.101Z,28.26
2019-06-27T18:48:09.737Z,27.96
2019-06-27T18:53:12.469Z,27.72
2019-06-27T18:55:45.177Z,27.46
2019-06-27T18:58:13.517Z,27.30
2019-06-27T19:00:41.864Z,27.28
2019-06-27T19:03:10.200Z,27.13
2019-06-27T19:05:50.822Z,27.04
2019-06-27T19:08:19.189Z,26.86
2019-06-27T19:13:21.824Z,26.69
2019-06-27T19:18:35.113Z,26.46
2019-06-27T19:21:03.472Z,26.34
2019-06-27T19:23:37.134Z,26.28
2019-06-27T19:26:05.483Z,26.18
2019-06-27T19:28:33.825Z,26.13
2019-06-27T19:31:02.206Z,26.10
2019-06-27T19:33:30.533Z,25.98
2019-06-27T19:35:58.919Z,25.87
2019-06-27T19:38:27.252Z,25.83
2019-06-27T19:43:34.976Z,25.74
2019-06-27T19:46:03.354Z,25.64
2019-06-27T19:48:31.692Z,25.69
2019-06-27T19:51:01.937Z,25.64
2019-06-27T19:53:30.425Z,25.47
2019-06-27T19:56:00.577Z,25.43
2019-06-27T20:01:03.289Z,25.28
2019-06-27T20:06:08.037Z,25.19
2019-06-27T20:08:42.146Z,25.09
2019-06-27T20:11:10.516Z,25.04
2019-06-27T20:13:39.759Z,24.97
2019-06-27T20:16:08.101Z,24.88
2019-06-27T20:18:36.521Z,24.75
2019-06-27T20:21:04.853Z,24.63
2019-06-27T20:23:33.226Z,24.66
2019-06-27T20:26:03.804Z,24.58
2019-06-27T20:31:04.270Z,24.46
2019-06-27T20:33:44.094Z,24.43
2019-06-27T20:36:12.420Z,24.22
2019-06-27T20:38:50.986Z,24.07
2019-06-27T20:41:19.337Z,23.81
2019-06-27T20:43:51.414Z,23.81
2019-06-27T20:48:58.053Z,23.55
2019-06-27T20:54:00.728Z,23.21
2019-06-27T20:56:30.480Z,23.25
2019-06-27T20:58:58.314Z,23.09
2019-06-27T21:01:26.705Z,22.82
2019-06-27T21:03:58.792Z,22.71
2019-06-27T21:06:27.132Z,22.65
2019-06-27T21:08:55.509Z,22.37
2019-06-27T21:11:23.852Z,22.30
2019-06-27T21:13:59.772Z,22.20
2019-06-27T21:16:28.113Z,22.02
2019-06-27T21:18:56.534Z,21.82
2019-06-27T21:21:24.864Z,21.70
2019-06-27T21:23:58.962Z,21.72
2019-06-27T21:26:27.310Z,21.67
2019-06-27T21:28:55.653Z,21.45
2019-06-27T21:31:24.953Z,21.54
2019-06-27T21:33:53.330Z,21.37
2019-06-27T21:36:25.114Z,21.23
2019-06-27T21:39:06.697Z,21.14
2019-06-27T21:41:21.843Z,20.99
2019-06-27T21:43:50.197Z,20.94
2019-06-27T21:46:20.447Z,20.93
2019-06-27T21:51:23.053Z,20.64
2019-06-27T21:53:51.397Z,20.58
2019-06-27T21:56:20.638Z,20.62
2019-06-27T21:58:48.981Z,20.44
2019-06-27T22:03:51.711Z,20.40
2019-06-27T22:06:19.995Z,20.34
2019-06-27T22:08:48.344Z,20.21
2019-06-27T22:13:50.903Z,20.13
2019-06-27T22:18:53.546Z,19.92
2019-06-27T22:21:21.886Z,19.85
2019-06-27T22:23:50.233Z,19.72
2019-06-27T22:26:18.579Z,19.67
2019-06-27T22:28:46.917Z,19.59
2019-06-27T22:31:15.306Z,19.55
2019-06-27T22:33:44.694Z,19.51
2019-06-27T22:36:13.033Z,19.47
2019-06-27T22:38:46.787Z,19.41
2019-06-27T22:41:20.744Z,19.23
2019-06-27T22:43:54.641Z,19.10
2019-06-27T22:46:28.481Z,18.98
2019-06-27T22:48:58.595Z,18.96
2019-06-27T22:54:22.428Z,18.84
2019-06-27T22:56:50.802Z,18.69
2019-06-27T22:59:19.153Z,18.70
2019-06-27T23:01:47.526Z,18.73
2019-06-27T23:04:16.824Z,18.65
2019-06-27T23:06:45.165Z,18.50
2019-06-27T23:09:13.520Z,18.37
2019-06-27T23:11:41.916Z,18.35
2019-06-27T23:14:12.191Z,18.04
2019-06-27T23:16:40.532Z,18.10
2019-06-27T23:19:11.552Z,17.88
2019-06-27T23:21:37.239Z,17.76
2019-06-27T23:24:06.509Z,17.68
2019-06-27T23:26:34.857Z,17.59
2019-06-27T23:29:03.268Z,17.58
2019-06-27T23:31:31.627Z,17.60
2019-06-27T23:34:00.005Z,17.49
2019-06-27T23:39:02.674Z,17.27
2019-06-27T23:41:31.009Z,17.12
2019-06-27T23:43:59.386Z,17.03
2019-06-27T23:46:43.387Z,17.01
2019-06-27T23:49:11.954Z,16.85
2019-06-27T23:51:40.300Z,16.75
2019-06-27T23:54:08.680Z,16.52
2019-06-27T23:56:37.042Z,16.40
2019-06-27T23:59:05.388Z,16.36
